createdAt,value
2018-12-25T00:01:58.723Z,9.93
2018-12-25T00:04:20.975Z,12.40
2018-12-25T00:06:43.180Z,10.40
2018-12-25T00:09:06.132Z,11.40
2018-12-25T00:11:28.369Z,8.83
2018-12-25T00:13:50.647Z,9.23
2018-12-25T00:16:12.866Z,11.70
2018-12-25T00:18:35.130Z,9.83
2018-12-25T00:20:57.331Z,12.03
2018-12-25T00:23:19.552Z,10.47
2018-12-25T00:25:41.779Z,11.93
2018-12-25T00:28:04.011Z,9.47
2018-12-25T00:30:26.249Z,9.00
2018-12-25T00:32:48.498Z,10.47
2018-12-25T00:35:10.716Z,9.27
2018-12-25T00:37:32.941Z,11.83
2018-12-25T00:39:55.195Z,12.67
2018-12-25T00:42:17.409Z,7.17
2018-12-25T00:44:39.644Z,9.83
2018-12-25T00:47:01.887Z,10.30
2018-12-25T00:49:24.119Z,10.83
2018-12-25T00:51:46.389Z,9.90
2018-12-25T00:54:08.661Z,10.13
2018-12-25T00:56:30.903Z,8.80
2018-12-25T00:58:53.120Z,7.63
2018-12-25T01:01:15.371Z,10.00
2018-12-25T01:03:37.603Z,11.53
2018-12-25T01:05:59.887Z,10.33
2018-12-25T01:08:22.136Z,9.63
2018-12-25T01:10:44.366Z,11.80
2018-12-25T01:13:06.604Z,10.40
2018-12-25T01:15:28.858Z,11.20
2018-12-25T01:17:51.096Z,11.63
2018-12-25T01:20:13.322Z,11.27
2018-12-25T01:22:35.585Z,13.57
2018-12-25T01:24:57.811Z,7.73
2018-12-25T01:27:20.035Z,11.20
2018-12-25T01:29:42.287Z,11.47
2018-12-25T01:32:04.547Z,11.83
2018-12-25T01:34:26.795Z,8.33
2018-12-25T01:36:49.074Z,11.00
2018-12-25T01:39:11.303Z,12.57
2018-12-25T01:41:33.542Z,12.57
2018-12-25T01:43:55.763Z,12.00
2018-12-25T01:46:18.044Z,9.17
2018-12-25T01:48:40.297Z,9.10
2018-12-25T01:51:02.555Z,8.80
2018-12-25T01:53:24.786Z,8.93
2018-12-25T01:55:47.010Z,10.63
2018-12-25T01:58:09.234Z,10.53
2018-12-25T02:00:31.467Z,10.37
2018-12-25T02:02:53.704Z,10.13
2018-12-25T02:05:15.980Z,9.60
2018-12-25T02:07:38.209Z,9.50
2018-12-25T02:10:00.466Z,9.00
2018-12-25T02:12:22.717Z,9.83
2018-12-25T02:14:44.939Z,9.80
2018-12-25T02:17:07.170Z,11.10
2018-12-25T02:19:29.451Z,8.43
2018-12-25T02:21:51.814Z,9.47
2018-12-25T02:24:13.964Z,10.90
2018-12-25T02:26:36.235Z,11.30
2018-12-25T02:28:58.492Z,9.23
2018-12-25T02:31:20.727Z,13.20
2018-12-25T02:33:42.962Z,14.83
2018-12-25T02:36:05.199Z,13.50
2018-12-25T02:38:27.459Z,15.23
2018-12-25T02:40:49.711Z,14.80
2018-12-25T02:43:11.967Z,14.90
2018-12-25T02:45:34.211Z,14.20
2018-12-25T02:47:56.457Z,14.57
2018-12-25T02:50:18.711Z,14.53
2018-12-25T02:52:40.956Z,14.90
2018-12-25T02:55:03.226Z,15.70
2018-12-25T02:57:25.488Z,15.77
2018-12-25T02:59:47.712Z,14.80
2018-12-25T03:02:09.942Z,9.50
2018-12-25T03:04:32.198Z,10.83
2018-12-25T03:06:54.426Z,8.90
2018-12-25T03:09:16.665Z,11.07
2018-12-25T03:11:38.890Z,11.73
2018-12-25T03:14:01.131Z,9.67
2018-12-25T03:16:23.400Z,8.23
2018-12-25T03:18:45.671Z,9.27
2018-12-25T03:21:07.930Z,8.43
2018-12-25T03:23:30.145Z,8.80
2018-12-25T03:25:52.397Z,9.00
2018-12-25T03:28:14.697Z,11.70
2018-12-25T03:30:36.948Z,9.53
2018-12-25T03:32:59.189Z,9.60
2018-12-25T03:35:21.435Z,10.57
2018-12-25T03:37:43.679Z,10.87
2018-12-25T03:40:06.420Z,9.53
2018-12-25T03:42:28.660Z,9.90
2018-12-25T03:44:50.874Z,10.70
2018-12-25T03:47:13.107Z,11.23
2018-12-25T03:49:35.338Z,10.27
2018-12-25T03:51:57.561Z,11.47
2018-12-25T03:54:19.819Z,8.90
2018-12-25T03:56:42.087Z,9.80
2018-12-25T03:59:04.383Z,9.07
2018-12-25T04:01:26.644Z,9.20
2018-12-25T04:03:48.891Z,8.73
2018-12-25T04:06:11.185Z,9.87
2018-12-25T04:08:33.448Z,8.80
2018-12-25T04:10:55.706Z,10.13
2018-12-25T04:13:17.979Z,10.07
2018-12-25T04:15:40.255Z,10.90
2018-12-25T04:18:02.486Z,9.63
2018-12-25T04:20:24.751Z,9.37
2018-12-25T04:22:46.964Z,11.63
2018-12-25T04:25:09.207Z,11.17
2018-12-25T04:27:31.432Z,17.83
2018-12-25T04:29:53.664Z,10.70
2018-12-25T04:32:15.939Z,14.80
2018-12-25T04:34:38.280Z,11.37
2018-12-25T04:37:00.531Z,9.07
2018-12-25T04:39:22.815Z,9.80
2018-12-25T04:41:45.076Z,10.37
2018-12-25T04:44:07.291Z,9.47
2018-12-25T04:46:29.626Z,10.23
2018-12-25T04:48:51.892Z,10.13
2018-12-25T04:51:14.143Z,11.40
2018-12-25T04:53:36.397Z,9.73
2018-12-25T04:55:58.638Z,13.10
2018-12-25T04:58:20.869Z,12.17
2018-12-25T05:00:43.107Z,12.53
2018-12-25T05:03:05.370Z,10.57
2018-12-25T05:05:27.606Z,10.73
2018-12-25T05:07:49.877Z,9.07
2018-12-25T05:10:42.896Z,10.43
2018-12-25T05:13:05.174Z,10.77
2018-12-25T05:16:56.968Z,10.13
2018-12-25T05:19:19.244Z,11.67
2018-12-25T05:21:41.555Z,11.03
2018-12-25T05:24:03.824Z,13.80
2018-12-25T05:26:26.059Z,11.17
2018-12-25T05:28:48.314Z,10.87
2018-12-25T05:31:10.559Z,9.57
2018-12-25T05:33:32.808Z,10.97
2018-12-25T05:35:55.055Z,10.37
2018-12-25T05:38:17.267Z,12.73
2018-12-25T05:40:39.517Z,12.53
2018-12-25T05:43:01.755Z,13.47
2018-12-25T05:45:23.995Z,13.67
2018-12-25T05:47:46.263Z,15.20
2018-12-25T05:50:08.570Z,13.07
2018-12-25T05:52:30.799Z,14.07
2018-12-25T05:54:53.182Z,13.53
2018-12-25T05:57:15.341Z,13.97
2018-12-25T05:59:37.604Z,12.67
2018-12-25T06:01:59.835Z,14.60
2018-12-25T06:04:22.075Z,13.07
2018-12-25T06:06:44.335Z,13.47
2018-12-25T06:09:06.613Z,12.57
2018-12-25T06:11:28.860Z,10.13
2018-12-25T06:13:51.119Z,13.07
2018-12-25T06:16:13.395Z,12.90
2018-12-25T06:18:35.635Z,13.83
2018-12-25T06:20:57.905Z,12.47
2018-12-25T06:23:20.192Z,11.23
2018-12-25T06:25:42.438Z,10.20
2018-12-25T06:28:04.746Z,12.00
2018-12-25T06:30:26.947Z,11.60
2018-12-25T06:32:49.171Z,11.50
2018-12-25T06:35:11.443Z,12.43
2018-12-25T06:37:33.675Z,10.97
2018-12-25T06:39:55.938Z,13.57
2018-12-25T06:42:18.186Z,11.07
2018-12-25T06:44:40.445Z,13.57
2018-12-25T06:47:02.714Z,12.13
2018-12-25T06:49:24.944Z,13.30
2018-12-25T06:51:47.203Z,13.37
2018-12-25T06:54:09.420Z,13.27
2018-12-25T06:56:31.663Z,10.13
2018-12-25T06:58:53.937Z,12.43
2018-12-25T07:01:16.225Z,7.70
2018-12-25T07:03:38.466Z,11.00
2018-12-25T07:06:00.691Z,9.27
2018-12-25T07:08:22.935Z,10.07
2018-12-25T07:10:45.167Z,11.80
2018-12-25T07:13:07.390Z,9.60
2018-12-25T07:15:33.206Z,12.57
2018-12-25T07:17:51.896Z,12.77
2018-12-25T07:20:14.152Z,11.77
2018-12-25T07:22:36.440Z,11.93
2018-12-25T07:24:58.683Z,9.87
2018-12-25T07:27:20.918Z,11.03
2018-12-25T07:29:43.214Z,11.57
2018-12-25T07:32:05.461Z,11.93
2018-12-25T07:34:27.699Z,8.83
2018-12-25T07:36:49.919Z,9.57
2018-12-25T07:39:12.168Z,7.77
2018-12-25T07:41:34.402Z,9.87
2018-12-25T07:43:56.648Z,8.77
2018-12-25T07:46:18.939Z,10.00
2018-12-25T07:48:41.195Z,8.50
2018-12-25T07:51:03.490Z,9.40
2018-12-25T07:53:25.751Z,9.53
2018-12-25T07:55:48.002Z,11.27
2018-12-25T07:58:10.235Z,9.23
2018-12-25T08:00:32.515Z,8.33
2018-12-25T08:02:54.772Z,9.07
2018-12-25T08:05:17.260Z,8.90
2018-12-25T08:07:39.489Z,8.37
2018-12-25T08:10:01.743Z,8.00
2018-12-25T08:12:24.051Z,11.27
2018-12-25T08:14:46.232Z,12.00
2018-12-25T08:17:08.492Z,10.63
2018-12-25T08:19:30.743Z,11.10
2018-12-25T08:21:53.012Z,9.73
2018-12-25T08:24:15.237Z,12.17
2018-12-25T08:33:28.996Z,10.60
2018-12-25T08:35:51.234Z,11.57
2018-12-25T08:38:13.491Z,10.87
2018-12-25T08:40:35.727Z,10.47
2018-12-25T08:42:57.966Z,9.37
2018-12-25T08:45:20.211Z,12.27
2018-12-25T08:47:42.443Z,11.47
2018-12-25T08:50:06.998Z,11.27
2018-12-25T08:52:29.260Z,12.37
2018-12-25T08:54:51.520Z,12.73
2018-12-25T08:57:13.783Z,11.50
2018-12-25T08:59:36.020Z,10.50
2018-12-25T09:01:58.257Z,12.37
2018-12-25T09:04:20.537Z,11.03
2018-12-25T09:06:42.781Z,10.27
2018-12-25T09:09:06.739Z,12.50
2018-12-25T09:11:29.059Z,11.07
2018-12-25T09:13:51.311Z,9.17
2018-12-25T09:16:13.559Z,13.47
2018-12-25T09:18:35.873Z,10.37
2018-12-25T09:20:58.135Z,10.27
2018-12-25T09:23:20.394Z,11.77
2018-12-25T09:25:42.648Z,9.67
2018-12-25T09:28:04.920Z,12.43
2018-12-25T09:30:27.156Z,9.73
2018-12-25T09:32:49.407Z,10.00
2018-12-25T09:35:11.667Z,11.17
2018-12-25T09:37:33.907Z,12.03
2018-12-25T09:39:56.143Z,10.17
2018-12-25T09:42:18.422Z,14.40
2018-12-25T09:44:40.727Z,11.83
2018-12-25T09:47:02.992Z,12.93
2018-12-25T09:49:25.271Z,12.87
2018-12-25T09:51:54.370Z,10.27
2018-12-25T09:54:09.787Z,13.73
2018-12-25T09:56:32.046Z,13.07
2018-12-25T09:58:54.309Z,13.70
2018-12-25T10:01:16.523Z,14.40
2018-12-25T10:03:38.807Z,13.40
2018-12-25T10:06:01.032Z,15.20
2018-12-25T10:08:23.283Z,10.50
2018-12-25T10:10:45.556Z,13.10
2018-12-25T10:13:07.824Z,12.07
2018-12-25T10:15:30.050Z,13.10
2018-12-25T10:17:52.319Z,12.00
2018-12-25T10:20:14.623Z,15.10
2018-12-25T10:22:36.900Z,16.40
2018-12-25T10:24:59.133Z,12.70
2018-12-25T10:27:21.368Z,11.53
2018-12-25T10:29:43.607Z,12.03
2018-12-25T10:32:05.911Z,9.90
2018-12-25T10:34:28.179Z,10.37
2018-12-25T10:36:50.506Z,9.53
2018-12-25T10:39:12.758Z,11.47
2018-12-25T10:41:35.085Z,11.00
2018-12-25T10:43:57.328Z,11.13
2018-12-25T10:46:19.568Z,9.83
2018-12-25T10:48:41.924Z,10.93
2018-12-25T10:51:04.231Z,11.07
2018-12-25T10:53:26.494Z,10.47
2018-12-25T10:55:48.743Z,10.47
2018-12-25T10:58:10.978Z,11.57
2018-12-25T11:00:40.742Z,11.87
2018-12-25T11:03:02.991Z,12.30
2018-12-25T11:05:25.246Z,10.73
2018-12-25T11:07:47.560Z,11.60
2018-12-25T11:10:09.804Z,9.70
2018-12-25T11:12:32.096Z,10.40
2018-12-25T11:14:56.189Z,9.17
2018-12-25T11:17:16.735Z,10.00
2018-12-25T11:19:39.027Z,9.67
2018-12-25T11:22:01.340Z,12.33
2018-12-25T11:24:23.534Z,9.80
2018-12-25T11:26:45.796Z,10.00
2018-12-25T11:29:08.016Z,10.73
2018-12-25T11:31:30.259Z,9.30
2018-12-25T11:33:52.502Z,10.93
2018-12-25T11:36:14.787Z,10.90
2018-12-25T11:38:37.053Z,11.27
2018-12-25T11:40:59.359Z,11.43
2018-12-25T11:43:21.635Z,8.67
2018-12-25T11:45:43.872Z,8.90
2018-12-25T11:48:06.131Z,8.93
2018-12-25T11:50:28.416Z,9.33
2018-12-25T11:52:50.648Z,9.50
2018-12-25T11:55:12.902Z,10.17
2018-12-25T11:57:35.159Z,10.03
2018-12-25T11:59:57.408Z,9.70
2018-12-25T12:02:19.676Z,9.57
2018-12-25T12:04:41.924Z,10.03
2018-12-25T12:07:04.195Z,9.20
2018-12-25T12:09:26.484Z,9.40
2018-12-25T12:11:48.775Z,10.07
2018-12-25T12:14:11.055Z,9.37
2018-12-25T12:16:33.301Z,8.50
2018-12-25T12:18:55.586Z,7.50
2018-12-25T12:21:18.775Z,10.57
2018-12-25T12:23:40.172Z,8.97
2018-12-25T12:26:02.443Z,9.93
2018-12-25T12:28:24.713Z,9.07
2018-12-25T12:30:46.998Z,8.70
2018-12-25T12:33:09.252Z,7.30
2018-12-25T12:35:31.520Z,8.67
2018-12-25T12:37:53.780Z,8.97
2018-12-25T12:40:16.091Z,10.63
2018-12-25T12:42:38.351Z,10.67
2018-12-25T12:45:00.619Z,9.17
2018-12-25T12:47:22.912Z,10.17
2018-12-25T12:49:45.191Z,11.00
2018-12-25T12:52:07.424Z,11.00
2018-12-25T12:54:29.683Z,11.10
2018-12-25T12:56:51.947Z,10.33
2018-12-25T12:59:14.255Z,12.23
2018-12-25T13:01:36.493Z,8.60
2018-12-25T13:03:58.768Z,8.13
2018-12-25T13:06:21.067Z,9.03
2018-12-25T13:08:43.320Z,11.43
2018-12-25T13:11:05.587Z,10.83
2018-12-25T13:13:27.863Z,10.73
2018-12-25T13:15:50.151Z,10.97
2018-12-25T13:18:12.428Z,10.43
2018-12-25T13:20:34.679Z,10.90
2018-12-25T13:22:56.934Z,7.87
2018-12-25T13:25:19.272Z,7.47
2018-12-25T13:27:41.515Z,8.20
2018-12-25T13:30:05.380Z,9.07
2018-12-25T13:32:27.828Z,7.53
2018-12-25T13:34:50.131Z,6.60
2018-12-25T13:37:12.392Z,7.80
2018-12-25T13:39:34.659Z,8.70
2018-12-25T13:41:56.925Z,8.47
2018-12-25T13:44:19.304Z,9.20
2018-12-25T13:46:41.607Z,7.20
2018-12-25T13:49:03.877Z,9.80
2018-12-25T13:51:26.184Z,8.63
2018-12-25T13:53:48.513Z,8.07
2018-12-25T13:56:10.789Z,8.60
2018-12-25T13:58:33.127Z,6.83
2018-12-25T14:00:55.455Z,7.00
2018-12-25T14:03:17.709Z,7.83
2018-12-25T14:05:39.963Z,7.83
2018-12-25T14:08:02.281Z,6.80
2018-12-25T14:10:24.530Z,7.13
2018-12-25T14:12:46.759Z,8.20
2018-12-25T14:15:09.028Z,7.17
2018-12-25T14:17:31.309Z,7.70
2018-12-25T14:19:53.550Z,8.27
2018-12-25T14:22:15.835Z,7.27
2018-12-25T14:24:38.076Z,9.27
2018-12-25T14:27:00.387Z,7.20
2018-12-25T14:29:22.624Z,7.20
2018-12-25T14:31:44.883Z,6.97
2018-12-25T14:34:07.131Z,8.90
2018-12-25T14:36:29.389Z,8.10
2018-12-25T14:38:51.698Z,7.20
2018-12-25T14:41:13.961Z,7.07
2018-12-25T14:43:36.222Z,6.23
2018-12-25T14:45:58.538Z,9.30
2018-12-25T14:48:20.794Z,8.63
2018-12-25T14:50:43.080Z,10.10
2018-12-25T14:53:05.319Z,7.80
2018-12-25T14:55:27.549Z,9.40
2018-12-25T14:57:49.809Z,7.27
2018-12-25T15:00:12.218Z,7.57
2018-12-25T15:02:34.359Z,8.60
2018-12-25T15:04:56.678Z,7.67
2018-12-25T15:07:18.939Z,6.80
2018-12-25T15:09:41.215Z,6.47
2018-12-25T15:12:03.494Z,7.20
2018-12-25T15:14:25.747Z,6.80
2018-12-25T15:16:48.031Z,6.63
2018-12-25T15:19:10.297Z,6.57
2018-12-25T15:21:32.544Z,6.33
2018-12-25T15:23:54.779Z,7.30
2018-12-25T15:26:17.046Z,7.03
2018-12-25T15:28:39.255Z,7.03
2018-12-25T15:31:01.513Z,6.20
2018-12-25T15:33:23.744Z,7.70
2018-12-25T15:35:46.081Z,6.60
2018-12-25T15:38:08.382Z,9.80
2018-12-25T15:40:30.656Z,8.80
2018-12-25T15:42:52.905Z,6.30
2018-12-25T15:45:15.188Z,6.27
2018-12-25T15:47:37.466Z,6.60
2018-12-25T15:49:59.700Z,6.60
2018-12-25T15:52:22.002Z,6.37
2018-12-25T15:54:44.253Z,6.53
2018-12-25T15:57:08.556Z,6.40
2018-12-25T15:59:30.791Z,6.33
2018-12-25T16:01:53.035Z,7.13
2018-12-25T16:04:15.263Z,6.90
2018-12-25T16:06:37.515Z,7.07
2018-12-25T16:08:59.739Z,6.03
2018-12-25T16:11:21.987Z,6.23
2018-12-25T16:13:44.271Z,6.93
2018-12-25T16:16:06.509Z,6.37
2018-12-25T16:18:28.745Z,6.63
2018-12-25T16:20:50.974Z,7.17
2018-12-25T16:23:13.246Z,6.23
2018-12-25T16:25:35.483Z,6.53
2018-12-25T16:27:57.735Z,6.13
2018-12-25T16:30:19.949Z,7.77
2018-12-25T16:32:42.255Z,5.77
2018-12-25T16:35:05.134Z,7.30
2018-12-25T16:37:27.395Z,9.47
2018-12-25T16:39:49.613Z,7.73
2018-12-25T16:42:11.900Z,6.63
2018-12-25T16:44:34.135Z,7.23
2018-12-25T16:46:56.442Z,6.80
2018-12-25T16:49:18.669Z,7.90
2018-12-25T16:51:40.944Z,8.43
2018-12-25T16:54:03.239Z,8.63
2018-12-25T16:56:25.454Z,6.27
2018-12-25T16:58:47.743Z,6.57
2018-12-25T17:01:09.987Z,8.27
2018-12-25T17:03:32.222Z,8.23
2018-12-25T17:05:54.467Z,6.67
2018-12-25T17:08:16.720Z,7.87
2018-12-25T17:10:38.975Z,7.13
2018-12-25T17:13:01.219Z,8.50
2018-12-25T17:15:23.451Z,7.80
2018-12-25T17:17:45.732Z,7.33
2018-12-25T17:20:07.997Z,7.77
2018-12-25T17:22:30.231Z,7.50
2018-12-25T17:24:52.439Z,8.27
2018-12-25T17:27:14.697Z,8.83
2018-12-25T17:29:36.956Z,6.80
2018-12-25T17:31:59.189Z,8.30
2018-12-25T17:34:21.420Z,8.47
2018-12-25T17:36:43.678Z,7.57
2018-12-25T17:39:06.773Z,7.93
2018-12-25T17:41:29.020Z,8.00
2018-12-25T17:43:51.294Z,7.83
2018-12-25T17:46:13.591Z,7.90
2018-12-25T17:48:35.867Z,10.20
2018-12-25T17:50:58.111Z,8.80
2018-12-25T17:53:20.338Z,10.23
2018-12-25T17:55:42.544Z,8.37
2018-12-25T17:58:04.790Z,7.67
2018-12-25T18:00:27.070Z,8.30
2018-12-25T18:02:49.284Z,9.00
2018-12-25T18:05:12.222Z,9.67
2018-12-25T18:07:33.820Z,8.43
2018-12-25T18:09:56.044Z,8.47
2018-12-25T18:12:18.294Z,9.57
2018-12-25T18:14:40.618Z,9.80
2018-12-25T18:17:02.916Z,9.97
2018-12-25T18:19:25.199Z,8.67
2018-12-25T18:21:47.459Z,8.50
2018-12-25T18:24:09.703Z,9.17
2018-12-25T18:26:31.944Z,8.70
2018-12-25T18:28:54.161Z,9.63
2018-12-25T18:31:16.444Z,9.37
2018-12-25T18:33:38.651Z,8.80
2018-12-25T18:36:00.899Z,8.87
2018-12-25T18:38:23.164Z,9.10
2018-12-25T18:40:45.416Z,9.27
2018-12-25T18:43:07.647Z,9.83
2018-12-25T18:45:29.925Z,10.37
2018-12-25T18:47:52.152Z,9.97
2018-12-25T18:50:14.392Z,9.77
2018-12-25T18:52:36.624Z,9.20
2018-12-25T18:54:58.856Z,13.27
2018-12-25T18:57:21.115Z,9.90
2018-12-25T18:59:43.393Z,9.53
2018-12-25T19:02:05.632Z,10.10
2018-12-25T19:04:27.872Z,11.67
2018-12-25T19:06:50.126Z,10.43
2018-12-25T19:09:12.370Z,9.63
2018-12-25T19:11:34.594Z,9.30
2018-12-25T19:13:56.848Z,10.73
2018-12-25T19:16:19.128Z,9.73
2018-12-25T19:18:41.355Z,8.90
2018-12-25T19:21:03.616Z,9.93
2018-12-25T19:23:25.834Z,9.57
2018-12-25T19:25:48.067Z,11.63
2018-12-25T19:28:10.335Z,9.73
2018-12-25T19:30:34.909Z,9.70
2018-12-25T19:32:57.164Z,9.33
2018-12-25T19:35:19.413Z,8.77
2018-12-25T19:37:41.668Z,8.57
2018-12-25T19:40:04.011Z,9.30
2018-12-25T19:42:26.310Z,9.27
2018-12-25T19:44:48.621Z,9.63
2018-12-25T19:47:10.849Z,7.97
2018-12-25T19:49:33.115Z,10.57
2018-12-25T19:51:55.391Z,8.50
2018-12-25T19:54:17.657Z,8.27
2018-12-25T19:56:39.903Z,9.83
2018-12-25T19:59:02.176Z,9.00
2018-12-25T20:01:24.462Z,9.60
2018-12-25T20:03:51.200Z,9.97
2018-12-25T20:08:31.507Z,9.17
2018-12-25T20:11:02.911Z,10.17
2018-12-25T20:13:35.330Z,10.07
2018-12-25T20:16:08.640Z,10.00
2018-12-25T20:18:56.029Z,9.10
2018-12-25T20:23:32.670Z,10.07
2018-12-25T20:26:28.703Z,8.97
2018-12-25T20:29:04.908Z,9.43
2018-12-25T20:31:43.943Z,8.70
2018-12-25T20:34:25.587Z,8.40
2018-12-25T20:39:20.623Z,8.97
2018-12-25T20:42:25.871Z,11.20
2018-12-25T20:45:00.946Z,12.20
2018-12-25T20:47:40.179Z,10.90
2018-12-25T20:50:13.731Z,12.10
2018-12-25T20:55:01.764Z,11.90
2018-12-25T20:57:43.425Z,10.77
2018-12-25T21:02:21.623Z,11.10
2018-12-25T21:05:02.684Z,12.17
2018-12-25T21:08:02.720Z,9.60
2018-12-25T21:12:47.099Z,10.00
2018-12-25T21:15:57.376Z,10.30
2018-12-25T21:20:35.960Z,13.40
2018-12-25T21:23:09.504Z,11.50
2018-12-25T21:25:43.127Z,13.77
2018-12-25T21:28:04.448Z,12.70
2018-12-25T21:30:26.731Z,11.17
2018-12-25T21:32:48.995Z,12.43
2018-12-25T21:35:15.539Z,13.93
2018-12-25T21:37:37.828Z,10.93
2018-12-25T21:40:00.161Z,13.17
2018-12-25T21:42:22.415Z,12.47
2018-12-25T21:44:44.732Z,10.13
2018-12-25T21:47:06.993Z,11.93
2018-12-25T21:49:29.437Z,12.47
2018-12-25T21:51:51.764Z,13.17
2018-12-25T21:54:14.027Z,11.00
2018-12-25T21:56:36.316Z,10.53
2018-12-25T21:58:58.629Z,12.97
2018-12-25T22:01:20.908Z,16.60
2018-12-25T22:03:43.213Z,11.70
2018-12-25T22:06:05.479Z,12.07
2018-12-25T22:08:27.712Z,12.30
2018-12-25T22:10:49.947Z,11.23
2018-12-25T22:13:12.185Z,11.43
2018-12-25T22:15:34.457Z,12.30
2018-12-25T22:17:56.735Z,11.60
2018-12-25T22:20:25.735Z,13.83
2018-12-25T22:24:12.568Z,11.77
2018-12-25T22:26:34.803Z,10.97
2018-12-25T22:28:57.049Z,14.63
2018-12-25T22:31:19.302Z,11.73
2018-12-25T22:33:41.570Z,12.23
2018-12-25T22:36:03.831Z,12.83
2018-12-25T22:38:26.082Z,12.07
2018-12-25T22:40:48.349Z,12.10
2018-12-25T22:43:10.653Z,11.13
2018-12-25T22:45:32.919Z,14.77
2018-12-25T22:47:55.154Z,14.73
2018-12-25T22:50:17.440Z,13.27
2018-12-25T22:52:39.722Z,12.93
2018-12-25T22:55:02.000Z,11.47
2018-12-25T22:57:24.247Z,13.30
2018-12-25T22:59:46.532Z,11.17
2018-12-25T23:02:08.801Z,11.70
2018-12-25T23:04:31.083Z,12.07
2018-12-25T23:06:53.316Z,13.03
2018-12-25T23:09:15.563Z,11.13
2018-12-25T23:11:37.787Z,13.23
2018-12-25T23:14:00.015Z,10.60
2018-12-25T23:16:22.259Z,11.73
2018-12-25T23:18:44.500Z,13.33
2018-12-25T23:21:06.828Z,11.97
2018-12-25T23:23:29.060Z,12.63
2018-12-25T23:25:51.363Z,11.57
2018-12-25T23:28:13.631Z,10.83
2018-12-25T23:30:35.863Z,11.20
2018-12-25T23:32:58.098Z,11.70
2018-12-25T23:35:20.330Z,11.47
2018-12-25T23:37:42.598Z,11.97
2018-12-25T23:40:05.923Z,10.57
2018-12-25T23:42:27.196Z,10.33
2018-12-25T23:44:49.443Z,10.87
2018-12-25T23:47:11.709Z,11.43
2018-12-25T23:49:33.982Z,11.70
2018-12-25T23:51:56.282Z,11.10
2018-12-25T23:54:18.523Z,10.17
2018-12-25T23:56:40.767Z,10.47
2018-12-25T23:59:03.100Z,11.07
